Strona główna
METAR-TAF:

METAR-TAF

Lotnisko :

Port lotniczy Kinszasa

Kinszasa, Kongo

Szerokość geograficzna: 04-23S, Długość geograficzna: 015-26E, wysokość: 309 m

Aktualna obserwacja pogody

Raport powstał 53 minut temu, godzina 19:00 UTC
Wiatr 8 kt od południowy zachód
Temperatura 25°C
Wilgotność 74%
Ciśnienie 1013 hPa
Widzialność: 6000 m
Rozproszone chmury na wysokości 1600 ft

METAR: FZAA 251900Z 23008KT 6000 SCT016 25/20 Q1013 NOSIG

czas: 20:53 (19:53 UTC)

Prognoza

Raport powstał 2 godziny i 53 minut temu, godzina 17:00 UTC
Prognoza ważna od 25 godzina 18 UTC do 26 godzina 24 UTC
Wiatr 8 kt od zachód
Widzialność: 6000 m
Mało chmury na wysokości 2000 ft
Stopniowe zmiany
od 26 godzina 04 UTC do 26 godzina 06 UTC
Widzialność: 3500 m
Przerywane chmury na wysokości 1400 ft
zamglenie
Od 26 godzina 1200 UTC
Wiatr 12 kt od północno-północny zachód
Widzialność: 7000 m
Rozproszone chmury na wysokości 2200 ft

TAF: FZAA 251700Z 2518/2624 27008KT 6000 FEW020 BECMG 2604/2606 3500 BR BKN014 FM261200 33012KT 7000 NSW SCT022

Obserwacja i prognoza pogody dla ponad 4000 lotnisk (raport METAR i TAF).

Dostępne stacje oznaczono żółtymi i czerwonymi punktami na mapie.

Najedź kursorem aby zobaczyć nazwę stacji.

Kliknij aby zobaczyć obserwacje i prognozy pogody.

Aby zmienić mapę: kliknij na zielony przycisk z czarnym krzyżykiem, aby powiększyć; na zielony przycisk z myślnikiem, aby pomniejszyć; na zielone strzałki, aby przejść do map sąsiednich.


METAR-TAF: